Time;durP1;ratioP1;P1;durP2;ratioP2;P2;SDS_P1;SDS_P2;PMS_P1;PMS_P2;Temp;Humidity;BMP_temperature;BMP_pressure;BME280_temperature;BME280_humidity;BME280_pressure;Samples;Min_cycle;Max_cycle;Signal;HPM_P1;HPM_P2
2022/07/03 00:00:32;;;;;;;3.97;2.97;;;17.80;99.90;;;;;;5063377;28;20044;-64
2022/07/03 00:02:58;;;;;;;3.65;3.08;;;17.70;99.90;;;;;;5069156;28;20062;-63
2022/07/03 00:05:24;;;;;;;3.90;2.88;;;17.60;99.90;;;;;;5065114;28;20405;-63
2022/07/03 00:07:50;;;;;;;4.40;2.97;;;17.50;99.90;;;;;;5067427;28;20052;-63
2022/07/03 00:10:15;;;;;;;5.85;3.08;;;17.40;99.90;;;;;;5062435;28;20080;-63
2022/07/03 00:12:41;;;;;;;3.20;2.75;;;17.40;99.90;;;;;;5048108;28;20060;-63
2022/07/03 00:15:07;;;;;;;4.95;3.30;;;17.40;99.90;;;;;;5067940;28;20132;-63
2022/07/03 00:17:33;;;;;;;6.18;3.60;;;17.40;99.90;;;;;;5068552;28;20039;-63
2022/07/03 00:19:59;;;;;;;4.78;3.90;;;17.40;99.90;;;;;;5066741;28;20104;-63
2022/07/03 00:22:25;;;;;;;4.55;3.63;;;17.40;99.90;;;;;;5064275;28;20052;-64
2022/07/03 00:24:56;;;;;;;3.85;3.00;;;17.40;99.90;;;;;;5063369;28;20048;-63
2022/07/03 00:27:24;;;;;;;7.82;3.15;;;17.20;99.90;;;;;;5063739;28;20096;-63
2022/07/03 00:29:51;;;;;;;3.38;2.80;;;17.10;99.90;;;;;;5067338;28;20044;-63
2022/07/03 00:32:24;;;;;;;4.75;3.38;;;17.00;99.90;;;;;;5066257;28;20033;-63
2022/07/03 00:34:51;;;;;;;4.65;3.40;;;16.90;99.90;;;;;;5066273;28;20053;-63
2022/07/03 00:37:17;;;;;;;4.68;3.42;;;17.00;99.90;;;;;;5067719;28;20227;-63
2022/07/03 00:39:44;;;;;;;3.30;3.00;;;17.10;99.90;;;;;;5062485;28;20045;-64
2022/07/03 00:42:11;;;;;;;4.45;3.08;;;17.20;99.90;;;;;;5066214;28;20052;-64
2022/07/03 00:44:51;;;;;;;5.05;3.28;;;17.20;99.90;;;;;;5062745;28;20045;-64
2022/07/03 00:47:19;;;;;;;3.80;3.50;;;17.30;99.90;;;;;;5059337;28;20056;-64
2022/07/03 00:49:59;;;;;;;3.30;3.00;;;17.20;99.90;;;;;;5065064;28;20532;-63
2022/07/03 00:52:25;;;;;;;3.72;3.17;;;17.10;99.90;;;;;;5065447;28;20072;-66
2022/07/03 00:54:57;;;;;;;5.97;3.45;;;17.10;99.90;;;;;;5067708;28;20033;-64
2022/07/03 00:57:26;;;;;;;3.92;3.00;;;17.00;99.90;;;;;;5065855;28;20047;-63
2022/07/03 00:59:53;;;;;;;4.05;3.25;;;16.90;99.90;;;;;;5063307;28;20044;-63
2022/07/03 01:02:39;;;;;;;4.22;3.35;;;16.80;99.90;;;;;;5050167;28;20045;-64
2022/07/03 01:05:24;;;;;;;4.97;3.83;;;16.80;99.90;;;;;;5066327;28;20092;-64
2022/07/03 01:08:04;;;;;;;4.00;3.28;;;16.80;99.90;;;;;;5065477;28;20120;-63
2022/07/03 01:10:56;;;;;;;3.53;3.22;;;16.80;99.90;;;;;;5048269;28;20079;-63
2022/07/03 01:13:38;;;;;;;5.43;3.30;;;16.80;99.90;;;;;;5066269;28;20113;-63
2022/07/03 01:16:05;;;;;;;4.80;2.85;;;16.70;99.90;;;;;;5064366;28;20060;-63
2022/07/03 01:18:45;;;;;;;3.85;2.80;;;16.70;99.90;;;;;;5062402;28;20036;-63
2022/07/03 01:21:32;;;;;;;4.40;2.83;;;16.60;99.90;;;;;;5065387;28;20049;-63
2022/07/03 01:24:22;;;;;;;4.78;3.28;;;16.50;99.90;;;;;;5062780;28;20084;-63
2022/07/03 01:26:54;;;;;;;4.30;3.00;;;16.50;99.90;;;;;;5064485;28;20099;-63
2022/07/03 01:29:30;;;;;;;5.32;3.10;;;16.50;99.90;;;;;;5065493;28;20592;-63
2022/07/03 01:31:58;;;;;;;3.58;3.08;;;16.50;99.90;;;;;;5064190;28;20059;-63
2022/07/03 01:34:30;;;;;;;4.28;3.88;;;16.50;99.90;;;;;;5065447;28;20045;-63
2022/07/03 01:36:59;;;;;;;5.47;3.95;;;16.50;99.90;;;;;;5067102;28;20095;-63
2022/07/03 01:39:27;;;;;;;5.57;4.20;;;16.50;99.90;;;;;;5065542;28;20045;-64
2022/07/03 01:41:55;;;;;;;3.95;3.55;;;16.50;99.90;;;;;;5065686;28;20077;-64
2022/07/03 01:44:25;;;;;;;7.13;4.25;;;16.40;99.90;;;;;;5065859;28;20081;-63
2022/07/03 01:46:53;;;;;;;5.22;3.90;;;16.40;99.90;;;;;;5065961;28;20056;-64
2022/07/03 01:49:20;;;;;;;5.93;4.03;;;16.40;99.90;;;;;;5065829;28;20053;-64
2022/07/03 01:51:50;;;;;;;5.32;3.75;;;16.40;99.90;;;;;;5061698;28;20051;-64
2022/07/03 01:54:17;;;;;;;6.13;3.70;;;16.30;99.90;;;;;;5045963;28;20441;-64
2022/07/03 01:56:44;;;;;;;4.32;3.70;;;16.30;99.90;;;;;;5046554;28;20049;-64
2022/07/03 01:59:10;;;;;;;6.78;3.15;;;16.20;99.90;;;;;;5048784;28;20056;-64
2022/07/03 02:01:57;;;;;;;5.60;3.60;;;16.10;99.90;;;;;;5065459;28;20059;-64
2022/07/03 02:04:35;;;;;;;7.70;4.03;;;16.00;99.90;;;;;;5065728;28;20057;-64
2022/07/03 02:07:03;;;;;;;4.32;3.30;;;15.90;99.90;;;;;;5065271;28;20045;-64
2022/07/03 02:09:44;;;;;;;4.10;2.80;;;15.80;99.90;;;;;;5057464;28;20100;-66
2022/07/03 02:12:13;;;;;;;7.97;3.88;;;15.60;99.90;;;;;;5047528;28;20064;-64
2022/07/03 02:14:45;;;;;;;7.28;3.92;;;15.50;99.90;;;;;;5048757;28;20125;-64
2022/07/03 02:17:17;;;;;;;5.10;3.35;;;15.40;99.90;;;;;;5055977;28;20040;-64
2022/07/03 02:19:51;;;;;;;4.30;3.30;;;15.40;99.90;;;;;;5065056;28;20055;-64
2022/07/03 02:22:20;;;;;;;7.75;3.92;;;15.40;99.90;;;;;;5065014;28;20395;-64
2022/07/03 02:24:47;;;;;;;7.25;3.72;;;15.30;99.90;;;;;;5063412;28;20804;-63
2022/07/03 02:27:19;;;;;;;5.45;3.55;;;15.30;99.90;;;;;;5054272;28;20094;-64
2022/07/03 02:29:55;;;;;;;6.43;3.85;;;15.30;99.90;;;;;;5066483;28;20048;-64
2022/07/03 02:32:22;;;;;;;5.35;3.75;;;15.30;99.90;;;;;;5062434;28;20056;-64
2022/07/03 02:35:17;;;;;;;4.45;3.97;;;15.30;99.90;;;;;;5062111;28;20052;-64
2022/07/03 02:37:52;;;;;;;5.65;4.15;;;15.20;99.90;;;;;;5065910;28;20146;-64
2022/07/03 02:40:25;;;;;;;4.65;4.03;;;15.20;99.90;;;;;;5064739;28;20100;-64
2022/07/03 02:43:05;;;;;;;5.40;3.83;;;15.20;99.90;;;;;;5066020;28;20104;-64
2022/07/03 02:45:43;;;;;;;5.45;3.80;;;15.20;99.90;;;;;;5066290;28;20477;-63
2022/07/03 02:48:18;;;;;;;5.47;3.85;;;15.00;99.90;;;;;;5044788;28;20049;-64
2022/07/03 02:50:47;;;;;;;4.60;4.20;;;15.10;99.90;;;;;;5046073;28;20051;-63
2022/07/03 02:53:27;;;;;;;5.32;4.38;;;15.00;99.90;;;;;;5044528;28;20401;-64
2022/07/03 02:56:05;;;;;;;4.70;4.07;;;14.90;99.90;;;;;;5044272;28;20097;-64
2022/07/03 02:58:56;;;;;;;4.70;4.30;;;14.90;99.90;;;;;;5044695;28;20052;-64
2022/07/03 03:01:43;;;;;;;5.30;4.18;;;14.90;99.90;;;;;;5044183;28;20059;-64
2022/07/03 03:04:13;;;;;;;5.18;3.97;;;14.90;99.90;;;;;;5044402;28;20101;-63
2022/07/03 03:06:41;;;;;;;;;;;14.80;99.90;;;;;;5045978;28;20049;-64
2022/07/03 03:09:14;;;;;;;6.57;4.47;;;14.70;99.90;;;;;;5064149;28;19980;-64
2022/07/03 03:11:45;;;;;;;5.55;5.05;;;14.80;99.90;;;;;;5064164;28;20047;-64
2022/07/03 03:14:18;;;;;;;7.88;4.38;;;14.90;99.90;;;;;;5065159;28;20049;-64
2022/07/03 03:16:53;;;;;;;5.75;4.57;;;14.80;99.90;;;;;;5065638;28;20048;-64
2022/07/03 03:19:23;;;;;;;7.53;4.22;;;14.90;99.90;;;;;;5045629;28;20088;-63
2022/07/03 03:21:53;;;;;;;;;;;14.70;99.90;;;;;;5056022;28;20057;-64
2022/07/03 03:24:19;;;;;;;6.78;4.97;;;14.60;99.90;;;;;;5061008;28;19925;-63
2022/07/03 03:26:45;;;;;;;6.03;4.35;;;14.50;99.90;;;;;;5065155;28;20033;-64
2022/07/03 03:29:11;;;;;;;5.28;4.78;;;14.50;99.90;;;;;;5064335;28;20394;-63
2022/07/03 03:31:36;;;;;;;5.53;4.60;;;14.60;99.90;;;;;;5063840;28;20083;-63
2022/07/03 03:34:03;;;;;;;7.28;4.93;;;14.60;99.90;;;;;;5061167;28;20109;-64
2022/07/03 03:36:29;;;;;;;6.03;4.63;;;14.50;99.90;;;;;;5062926;28;20052;-64
2022/07/03 03:38:55;;;;;;;4.65;4.25;;;14.50;99.90;;;;;;5063958;28;20052;-64
2022/07/03 03:41:21;;;;;;;5.25;4.78;;;14.40;99.90;;;;;;5063725;28;20049;-64
2022/07/03 03:43:47;;;;;;;5.63;5.05;;;14.50;99.90;;;;;;5063946;28;20053;-64
2022/07/03 03:46:16;;;;;;;8.07;5.40;;;14.40;99.90;;;;;;5064984;28;20401;-63
2022/07/03 03:48:42;;;;;;;5.63;5.07;;;14.40;99.90;;;;;;5063514;28;20049;-63
2022/07/03 03:51:07;;;;;;;5.72;5.22;;;14.30;99.90;;;;;;5063712;28;20295;-63
2022/07/03 03:53:33;;;;;;;5.07;4.50;;;14.40;99.90;;;;;;5063771;28;20044;-64
2022/07/03 03:56:05;;;;;;;6.70;4.95;;;14.50;99.90;;;;;;5063526;28;20576;-63
2022/07/03 03:58:33;;;;;;;7.63;5.20;;;14.60;99.90;;;;;;5063387;28;20072;-63
2022/07/03 04:01:00;;;;;;;6.20;5.60;;;14.70;99.90;;;;;;5063652;28;20059;-63
2022/07/03 04:03:28;;;;;;;6.80;5.78;;;14.60;99.90;;;;;;5063640;28;20049;-64
2022/07/03 04:05:54;;;;;;;7.22;6.18;;;14.70;99.90;;;;;;5063331;28;20056;-63
2022/07/03 04:08:21;;;;;;;7.88;7.07;;;14.80;99.90;;;;;;5063463;28;20413;-63
2022/07/03 04:10:48;;;;;;;9.68;7.50;;;14.90;99.90;;;;;;5064623;28;20099;-64
2022/07/03 04:13:15;;;;;;;12.57;8.52;;;14.90;99.90;;;;;;5063207;28;20104;-63
2022/07/03 04:15:41;;;;;;;10.25;7.90;;;14.90;99.90;;;;;;5064818;28;20131;-63
2022/07/03 04:18:07;;;;;;;11.45;7.93;;;14.90;99.90;;;;;;5064437;28;20045;-63
2022/07/03 04:20:33;;;;;;;7.97;7.28;;;14.90;99.90;;;;;;5063390;28;20044;-64
2022/07/03 04:22:59;;;;;;;7.95;7.15;;;14.90;99.90;;;;;;5063245;28;20060;-63
2022/07/03 04:25:25;;;;;;;8.20;7.45;;;15.10;99.90;;;;;;5047536;28;20109;-63
2022/07/03 04:27:51;;;;;;;9.20;8.20;;;15.30;99.90;;;;;;5043273;28;20046;-64
2022/07/03 04:30:17;;;;;;;6.47;5.88;;;15.40;99.90;;;;;;5044960;28;20049;-64
2022/07/03 04:32:42;;;;;;;11.15;7.15;;;15.40;99.90;;;;;;5050140;28;20044;-64
2022/07/03 04:35:08;;;;;;;7.70;6.93;;;15.40;99.90;;;;;;5059064;28;20447;-64
2022/07/03 04:37:34;;;;;;;7.72;7.00;;;15.50;99.90;;;;;;5063523;28;20037;-63
2022/07/03 04:40:00;;;;;;;10.00;8.25;;;15.60;99.90;;;;;;5061988;28;20052;-63
2022/07/03 04:42:26;;;;;;;10.85;7.88;;;15.70;99.90;;;;;;5063860;28;20056;-64
2022/07/03 04:44:52;;;;;;;10.00;8.15;;;15.70;99.90;;;;;;5062877;28;20041;-63
2022/07/03 04:47:18;;;;;;;11.98;8.30;;;15.70;99.90;;;;;;5064368;28;20048;-64
2022/07/03 04:49:44;;;;;;;10.27;8.57;;;15.60;99.90;;;;;;5066616;28;20112;-63
2022/07/03 04:52:10;;;;;;;11.20;7.85;;;15.60;99.90;;;;;;5066257;28;20131;-64
2022/07/03 04:54:36;;;;;;;9.75;8.80;;;15.60;99.90;;;;;;5065275;28;20032;-64
2022/07/03 04:57:02;;;;;;;10.20;7.70;;;15.50;99.90;;;;;;5063760;28;20481;-64
2022/07/03 04:59:28;;;;;;;9.40;8.20;;;15.40;99.90;;;;;;5065675;28;20052;-63
2022/07/03 05:01:54;;;;;;;9.40;7.32;;;15.40;99.90;;;;;;5064293;28;20117;-65
2022/07/03 05:04:20;;;;;;;9.85;7.95;;;15.40;99.90;;;;;;5066703;28;20047;-64
2022/07/03 05:06:45;;;;;;;10.25;9.35;;;15.30;99.90;;;;;;5066456;28;20053;-64
2022/07/03 05:09:11;;;;;;;9.60;8.63;;;15.20;99.90;;;;;;5066365;28;20045;-64
2022/07/03 05:11:37;;;;;;;12.30;9.13;;;15.20;99.90;;;;;;5066382;28;20440;-63
2022/07/03 05:14:04;;;;;;;10.38;8.52;;;15.10;99.90;;;;;;5065577;28;20049;-63
2022/07/03 05:16:30;;;;;;;9.32;8.52;;;15.20;99.90;;;;;;5067724;28;20502;-63
2022/07/03 05:18:56;;;;;;;9.20;8.30;;;15.20;99.90;;;;;;5065341;28;20041;-63
2022/07/03 05:21:22;;;;;;;9.50;8.50;;;15.20;99.90;;;;;;5067818;28;20186;-64
2022/07/03 05:23:47;;;;;;;11.02;8.43;;;15.20;99.90;;;;;;5061840;28;20102;-64
2022/07/03 05:26:13;;;;;;;7.25;6.55;;;15.30;99.90;;;;;;5067058;28;20045;-63
2022/07/03 05:28:39;;;;;;;8.95;8.15;;;15.40;99.90;;;;;;5066852;28;20040;-64
2022/07/03 05:31:05;;;;;;;8.15;7.20;;;15.50;99.90;;;;;;5066999;28;20037;-64
2022/07/03 05:33:31;;;;;;;9.75;8.40;;;15.70;99.90;;;;;;5065787;28;20166;-64
2022/07/03 05:35:58;;;;;;;9.00;8.10;;;15.80;99.90;;;;;;5064432;28;20041;-63
2022/07/03 05:41:10;;;;;;;7.68;7.05;;;16.00;99.90;;;;;;5055094;28;20052;-64
2022/07/03 05:43:36;;;;;;;8.48;6.60;;;16.10;99.90;;;;;;5065584;28;20079;-63
2022/07/03 05:46:02;;;;;;;11.38;8.32;;;16.30;99.90;;;;;;5067630;28;20100;-63
2022/07/03 05:48:28;;;;;;;8.63;7.78;;;16.40;99.90;;;;;;5065509;28;20116;-64
2022/07/03 05:50:54;;;;;;;9.82;7.75;;;16.40;99.90;;;;;;5065242;28;20126;-63
2022/07/03 05:53:20;;;;;;;9.55;8.60;;;16.50;99.90;;;;;;5065291;28;20051;-64
2022/07/03 05:55:45;;;;;;;8.70;7.90;;;16.60;99.90;;;;;;5066080;28;20053;-64
2022/07/03 05:58:11;;;;;;;8.60;7.40;;;16.60;99.90;;;;;;5065952;28;20489;-64
2022/07/03 06:00:37;;;;;;;8.75;7.32;;;16.70;99.90;;;;;;5065431;28;20508;-64
2022/07/03 06:03:03;;;;;;;9.25;7.25;;;16.80;99.90;;;;;;5067097;28;20124;-64
2022/07/03 06:05:28;;;;;;;7.28;6.57;;;16.80;99.90;;;;;;5064400;28;20052;-63
2022/07/03 06:07:54;;;;;;;9.60;6.63;;;17.00;99.90;;;;;;5060465;28;20129;-64
2022/07/03 06:10:20;;;;;;;7.75;6.60;;;17.10;99.90;;;;;;5061337;28;20485;-64
2022/07/03 06:12:46;;;;;;;5.85;5.10;;;17.20;99.90;;;;;;5063940;28;20056;-64
2022/07/03 06:15:12;;;;;;;5.75;5.25;;;17.20;99.90;;;;;;5060543;28;20045;-63
2022/07/03 06:17:37;;;;;;;4.63;4.13;;;17.30;99.90;;;;;;5063294;28;20071;-63
2022/07/03 06:20:04;;;;;;;7.68;4.35;;;17.40;99.90;;;;;;5065466;28;20523;-63
2022/07/03 06:22:30;;;;;;;7.82;3.65;;;17.50;99.90;;;;;;5066388;28;20060;-64
2022/07/03 06:24:56;;;;;;;4.65;3.50;;;17.70;99.90;;;;;;5065374;28;20055;-64
2022/07/03 06:27:22;;;;;;;6.03;3.30;;;17.80;99.90;;;;;;5065611;28;20049;-64
2022/07/03 06:29:49;;;;;;;6.18;3.95;;;17.90;99.90;;;;;;5064644;28;20142;-64
2022/07/03 06:32:16;;;;;;;4.35;3.10;;;18.00;99.90;;;;;;5065735;28;20045;-64
2022/07/03 06:34:44;;;;;;;6.47;3.03;;;18.10;99.90;;;;;;5064660;28;20049;-64
2022/07/03 06:37:11;;;;;;;5.22;3.47;;;18.20;99.90;;;;;;5063855;28;20073;-63
2022/07/03 06:39:36;;;;;;;4.78;2.65;;;18.30;99.90;;;;;;5064345;28;20045;-64
2022/07/03 06:42:03;;;;;;;3.97;2.38;;;18.50;99.90;;;;;;5063628;28;20135;-64
2022/07/03 06:44:29;;;;;;;3.67;2.10;;;18.50;99.90;;;;;;5064205;28;20128;-64
2022/07/03 06:46:54;;;;;;;5.85;2.65;;;18.60;99.90;;;;;;5060377;28;20044;-64
2022/07/03 06:49:20;;;;;;;3.88;2.53;;;18.80;99.90;;;;;;5064047;28;20454;-64
2022/07/03 06:51:46;;;;;;;4.20;2.38;;;18.90;99.90;;;;;;5064440;28;20082;-64
2022/07/03 06:54:12;;;;;;;4.18;2.88;;;19.00;99.90;;;;;;5065902;28;20101;-64
2022/07/03 06:56:37;;;;;;;7.68;2.70;;;19.10;99.90;;;;;;5060245;28;20040;-65
2022/07/03 06:59:03;;;;;;;3.42;2.00;;;19.20;99.90;;;;;;5061037;28;20060;-66
2022/07/03 07:01:29;;;;;;;5.25;1.90;;;19.30;99.90;;;;;;5064730;28;20037;-67
2022/07/03 07:03:55;;;;;;;7.22;2.22;;;19.40;99.90;;;;;;5063616;28;20095;-64
2022/07/03 07:06:21;;;;;;;3.47;1.70;;;19.50;99.90;;;;;;5061258;28;20045;-63
2022/07/03 07:08:47;;;;;;;5.13;1.70;;;19.50;99.90;;;;;;5062247;28;20045;-63
2022/07/03 07:11:13;;;;;;;4.78;2.20;;;19.40;99.90;;;;;;5062599;28;20052;-65
2022/07/03 07:13:38;;;;;;;3.70;1.70;;;19.40;99.90;;;;;;5063786;28;20036;-64
2022/07/03 07:16:05;;;;;;;6.55;1.98;;;19.40;99.90;;;;;;5062296;28;20041;-64
2022/07/03 07:18:30;;;;;;;4.57;1.95;;;19.50;99.90;;;;;;5062090;28;20044;-65
2022/07/03 07:20:56;;;;;;;4.55;2.10;;;19.50;99.90;;;;;;5062426;28;20105;-64
2022/07/03 07:23:22;;;;;;;4.32;2.20;;;19.60;99.90;;;;;;5056257;28;20076;-65
2022/07/03 07:25:48;;;;;;;3.90;2.13;;;19.60;99.90;;;;;;5060802;28;20054;-65
2022/07/03 07:28:13;;;;;;;4.65;2.30;;;19.60;99.90;;;;;;5062195;28;20074;-65
2022/07/03 07:30:39;;;;;;;3.85;2.50;;;19.70;99.90;;;;;;5063415;28;20040;-65
2022/07/03 07:33:09;;;;;;;3.95;2.05;;;19.70;99.90;;;;;;5061167;28;20045;-65
2022/07/03 07:35:34;;;;;;;4.53;2.08;;;19.60;99.90;;;;;;5061696;28;20052;-65
2022/07/03 07:38:00;;;;;;;6.97;1.83;;;19.60;99.90;;;;;;5062270;28;20044;-65
2022/07/03 07:40:26;;;;;;;2.53;1.58;;;19.60;99.90;;;;;;5063030;28;20060;-64
2022/07/03 07:42:52;;;;;;;6.55;2.10;;;19.60;99.90;;;;;;5062491;28;20102;-64
2022/07/03 07:45:17;;;;;;;3.03;2.17;;;19.60;99.90;;;;;;5060836;28;20539;-64
2022/07/03 07:47:43;;;;;;;4.93;2.40;;;19.70;99.90;;;;;;5040215;28;20370;-64
2022/07/03 07:50:09;;;;;;;3.38;2.33;;;19.70;99.90;;;;;;5062002;28;20045;-64
2022/07/03 07:52:35;;;;;;;4.85;2.40;;;19.70;99.90;;;;;;5061546;28;20080;-64
2022/07/03 07:55:01;;;;;;;4.72;2.60;;;19.80;99.90;;;;;;5061845;28;20037;-65
2022/07/03 07:57:37;;;;;;;5.97;2.40;;;19.90;99.90;;;;;;5061648;28;20084;-64
2022/07/03 08:00:11;;;;;;;5.03;2.92;;;20.00;99.90;;;;;;5056086;28;20061;-64
2022/07/03 08:05:37;;;;;;;8.75;2.72;;;20.10;99.90;;;;;;5060953;28;20049;-64
2022/07/03 08:08:16;;;;;;;6.30;2.60;;;20.10;99.90;;;;;;5064130;28;20048;-65
2022/07/03 08:10:43;;;;;;;5.45;2.75;;;20.20;99.90;;;;;;5063791;28;20056;-65
2022/07/03 08:13:10;;;;;;;5.60;2.35;;;20.30;99.90;;;;;;5045091;28;20512;-64
2022/07/03 08:15:36;;;;;;;3.22;2.00;;;20.40;99.90;;;;;;5062617;28;20041;-65
2022/07/03 08:18:02;;;;;;;3.78;2.03;;;20.50;99.90;;;;;;5062275;28;20106;-65
2022/07/03 08:20:28;;;;;;;5.05;2.70;;;20.50;99.90;;;;;;5062664;28;20044;-64
2022/07/03 08:22:54;;;;;;;4.85;2.25;;;20.50;99.90;;;;;;5066643;28;20057;-64
2022/07/03 08:25:20;;;;;;;6.43;2.35;;;20.60;99.90;;;;;;5066435;28;20043;-64
2022/07/03 08:27:46;;;;;;;3.85;2.40;;;20.60;99.90;;;;;;5067012;28;20104;-64
2022/07/03 08:30:14;;;;;;;3.35;2.35;;;20.70;99.90;;;;;;5065568;28;20068;-64
2022/07/03 08:32:40;;;;;;;3.60;2.25;;;20.70;99.90;;;;;;5067222;28;20127;-64
2022/07/03 08:35:06;;;;;;;4.53;2.10;;;20.80;99.90;;;;;;5066967;28;20045;-64
2022/07/03 08:37:32;;;;;;;4.28;2.35;;;20.90;99.90;;;;;;5065007;28;20068;-65
2022/07/03 08:39:58;;;;;;;10.15;3.50;;;21.10;99.90;;;;;;5063108;28;20068;-65
2022/07/03 08:42:26;;;;;;;6.22;2.65;;;21.10;99.90;;;;;;5064699;28;20060;-65
2022/07/03 08:44:54;;;;;;;3.75;2.30;;;21.20;99.90;;;;;;5066472;28;20045;-65
2022/07/03 08:47:21;;;;;;;6.80;2.70;;;21.20;99.90;;;;;;5029928;28;20041;-66
2022/07/03 08:49:48;;;;;;;3.95;2.30;;;21.20;99.90;;;;;;5045851;28;20050;-65
2022/07/03 08:52:14;;;;;;;4.75;2.20;;;21.30;99.90;;;;;;5047164;28;20045;-65
2022/07/03 08:54:39;;;;;;;6.40;2.88;;;21.40;99.90;;;;;;5045833;28;20046;-65
2022/07/03 08:57:06;;;;;;;5.75;2.55;;;21.40;99.90;;;;;;5046120;28;20124;-66
2022/07/03 08:59:38;;;;;;;5.40;3.22;;;21.40;99.90;;;;;;5046167;28;20037;-65
2022/07/03 09:02:05;;;;;;;6.47;2.92;;;21.40;99.90;;;;;;5040267;28;20073;-66
2022/07/03 09:04:35;;;;;;;4.55;2.50;;;21.50;99.90;;;;;;5044527;28;20041;-66
2022/07/03 09:07:01;;;;;;;3.90;2.70;;;21.60;99.90;;;;;;5040338;28;20052;-65
2022/07/03 09:09:28;;;;;;;3.88;2.40;;;21.50;99.90;;;;;;5037319;28;20437;-65
2022/07/03 09:11:53;;;;;;;5.32;2.83;;;21.50;99.90;;;;;;5031550;28;20042;-65
2022/07/03 09:14:20;;;;;;;4.13;2.33;;;21.30;99.90;;;;;;5037980;28;20044;-66
2022/07/03 09:16:45;;;;;;;3.72;2.65;;;21.40;99.90;;;;;;5038287;28;20480;-66
2022/07/03 09:19:11;;;;;;;6.03;2.55;;;21.20;99.90;;;;;;5036746;28;20073;-65
2022/07/03 09:21:42;;;;;;;6.53;3.38;;;21.10;99.90;;;;;;5036191;28;20065;-66
2022/07/03 09:24:09;;;;;;;4.72;3.05;;;21.20;99.90;;;;;;5038231;28;20104;-65
2022/07/03 09:26:36;;;;;;;4.88;2.72;;;21.20;99.90;;;;;;5029262;28;20037;-66
2022/07/03 09:29:03;;;;;;;4.97;2.95;;;21.20;99.90;;;;;;5033375;28;20101;-66
2022/07/03 09:31:30;;;;;;;5.88;3.17;;;21.30;99.90;;;;;;5032975;28;20084;-66
2022/07/03 09:34:03;;;;;;;4.40;2.50;;;21.30;99.90;;;;;;5037166;28;20049;-66
2022/07/03 09:36:47;;;;;;;4.43;2.75;;;21.50;99.90;;;;;;5038812;28;20037;-65
2022/07/03 09:39:31;;;;;;;6.25;2.03;;;21.60;99.90;;;;;;5031839;28;20045;-64
2022/07/03 09:42:02;;;;;;;3.50;1.70;;;21.30;99.90;;;;;;5031700;28;20049;-64
2022/07/03 09:44:40;;;;;;;4.25;2.20;;;21.30;99.90;;;;;;5033616;28;20502;-65
2022/07/03 09:47:10;;;;;;;6.45;1.60;;;21.40;99.90;;;;;;5036273;28;20041;-63
2022/07/03 09:49:50;;;;;;;6.18;1.88;;;21.40;99.90;;;;;;5033628;28;20613;-64
2022/07/03 09:52:36;;;;;;;7.15;1.95;;;21.40;99.90;;;;;;5041696;28;20058;-64
2022/07/03 09:55:19;;;;;;;3.47;1.20;;;21.50;99.90;;;;;;5036562;28;20049;-64
2022/07/03 09:57:49;;;;;;;6.55;1.40;;;21.60;99.90;;;;;;5023999;28;20049;-63
2022/07/03 10:00:23;;;;;;;5.43;1.55;;;21.80;99.90;;;;;;5035051;28;20049;-63
2022/07/03 10:02:54;;;;;;;3.92;1.70;;;22.10;99.90;;;;;;5039986;28;20064;-63
2022/07/03 10:05:25;;;;;;;5.88;1.55;;;22.20;99.90;;;;;;5041588;28;20045;-67
2022/07/03 10:07:53;;;;;;;4.00;1.70;;;22.30;99.90;;;;;;5043768;28;20072;-66
2022/07/03 10:10:21;;;;;;;2.88;1.70;;;22.40;99.90;;;;;;5044974;28;20049;-66
2022/07/03 10:12:52;;;;;;;4.07;1.90;;;22.40;99.90;;;;;;5042067;28;20029;-66
2022/07/03 10:15:19;;;;;;;3.47;1.85;;;22.50;99.90;;;;;;5042356;28;20054;-66
2022/07/03 10:17:53;;;;;;;5.13;1.80;;;22.30;99.90;;;;;;5047333;28;20030;-66
2022/07/03 10:20:38;;;;;;;2.65;1.40;;;22.20;99.90;;;;;;5048429;28;20049;-66
2022/07/03 10:23:04;;;;;;;5.15;1.60;;;22.20;99.90;;;;;;5041558;28;20530;-66
2022/07/03 10:25:31;;;;;;;2.92;1.20;;;22.30;99.90;;;;;;5044365;28;20049;-66
2022/07/03 10:27:57;;;;;;;2.67;1.40;;;22.40;99.90;;;;;;5047240;28;20041;-66
2022/07/03 10:30:24;;;;;;;2.80;1.40;;;22.40;99.90;;;;;;5046031;28;20072;-66
2022/07/03 10:32:51;;;;;;;4.30;1.55;;;22.50;99.90;;;;;;5048043;28;20105;-66
2022/07/03 10:35:32;;;;;;;2.67;1.40;;;22.50;99.90;;;;;;5045860;28;20053;-66
2022/07/03 10:38:00;;;;;;;4.60;1.20;;;22.50;99.90;;;;;;5048074;28;20079;-66
2022/07/03 10:46:21;;;;;;;2.65;0.75;;;22.30;99.90;;;;;;5041870;28;20517;-66
2022/07/03 10:48:59;;;;;;;1.98;1.13;;;22.40;99.90;;;;;;5042985;28;20042;-70
2022/07/03 10:51:27;;;;;;;3.33;0.88;;;22.60;99.90;;;;;;5046103;28;20042;-66
2022/07/03 10:54:23;;;;;;;2.10;1.05;;;22.50;99.90;;;;;;5050923;28;20089;-66
2022/07/03 10:56:58;;;;;;;2.25;1.10;;;22.60;99.90;;;;;;5045936;28;20473;-66
2022/07/03 10:59:44;;;;;;;3.13;1.10;;;22.70;99.90;;;;;;5045765;28;20564;-66
2022/07/03 11:02:34;;;;;;;2.03;1.00;;;22.80;99.90;;;;;;5028886;28;20083;-66
2022/07/03 11:05:03;;;;;;;2.97;0.98;;;23.00;99.90;;;;;;5059162;28;20458;-66
2022/07/03 11:07:33;;;;;;;1.15;0.98;;;23.00;99.90;;;;;;5045993;28;20057;-66
2022/07/03 11:10:14;;;;;;;3.00;1.20;;;23.00;99.90;;;;;;5052122;28;20513;-66
2022/07/03 11:13:07;;;;;;;2.78;1.27;;;23.00;99.90;;;;;;5050079;28;20486;-66
2022/07/03 11:15:41;;;;;;;1.90;1.05;;;22.80;99.90;;;;;;5043084;28;20440;-66
2022/07/03 11:18:23;;;;;;;3.10;1.40;;;22.90;99.90;;;;;;5047648;28;20482;-66
2022/07/03 11:20:51;;;;;;;1.67;1.25;;;22.90;99.90;;;;;;5080223;28;20048;-66
2022/07/03 11:23:25;;;;;;;1.27;0.90;;;23.00;99.90;;;;;;5056331;28;20083;-66
2022/07/03 11:25:55;;;;;;;1.55;0.85;;;23.00;99.90;;;;;;5064604;28;20047;-66
2022/07/03 11:28:33;;;;;;;3.67;0.90;;;22.90;99.90;;;;;;5054786;28;20076;-66
2022/07/03 11:31:08;;;;;;;3.42;0.90;;;23.20;99.90;;;;;;5080496;28;20059;-66
2022/07/03 11:33:55;;;;;;;2.55;1.00;;;23.10;99.90;;;;;;5077074;28;20066;-66
2022/07/03 11:36:32;;;;;;;2.53;0.98;;;23.40;99.90;;;;;;5053842;28;20048;-66
2022/07/03 11:38:58;;;;;;;2.78;1.00;;;23.50;99.90;;;;;;5060169;28;20441;-66
2022/07/03 11:41:29;;;;;;;1.83;0.90;;;23.40;99.90;;;;;;5057782;28;20073;-66
2022/07/03 11:44:03;;;;;;;2.33;1.10;;;23.40;99.90;;;;;;5080411;28;20058;-66
2022/07/03 11:46:31;;;;;;;2.83;0.95;;;23.50;99.90;;;;;;5064619;28;20056;-66
2022/07/03 11:49:13;;;;;;;1.40;1.00;;;23.40;99.90;;;;;;5059777;28;20067;-66
2022/07/03 11:51:41;;;;;;;1.80;1.10;;;23.20;99.90;;;;;;5065015;28;20048;-66
2022/07/03 11:54:07;;;;;;;2.13;0.90;;;23.00;99.90;;;;;;5074779;28;20040;-66
2022/07/03 11:56:35;;;;;;;1.27;0.80;;;23.20;99.90;;;;;;5060917;28;20041;-66
2022/07/03 11:59:03;;;;;;;3.97;1.10;;;23.30;99.90;;;;;;5052751;28;20059;-66
2022/07/03 12:01:34;;;;;;;2.03;1.05;;;23.50;99.90;;;;;;5066429;28;20053;-66
2022/07/03 12:04:23;;;;;;;1.63;0.90;;;23.50;99.90;;;;;;5066469;28;20139;-66
2022/07/03 12:06:55;;;;;;;1.48;0.80;;;23.60;99.90;;;;;;5069472;28;20075;-66
2022/07/03 12:09:26;;;;;;;3.38;1.00;;;23.80;99.90;;;;;;5071164;28;20397;-66
2022/07/03 12:12:06;;;;;;;4.00;0.90;;;23.90;99.90;;;;;;5059909;28;20109;-66
2022/07/03 12:14:47;;;;;;;0.82;0.70;;;23.80;99.90;;;;;;5073696;28;20064;-66
2022/07/03 12:17:22;;;;;;;1.95;0.95;;;23.60;99.90;;;;;;5052097;28;20063;-66
2022/07/03 12:19:55;;;;;;;2.38;1.33;;;23.70;99.90;;;;;;5045525;28;20100;-66
2022/07/03 12:22:39;;;;;;;2.97;1.10;;;23.50;99.90;;;;;;5056284;28;20132;-66
2022/07/03 12:25:12;;;;;;;2.92;1.15;;;23.30;99.90;;;;;;5059671;28;20053;-66
2022/07/03 12:27:42;;;;;;;2.08;1.00;;;23.40;99.90;;;;;;5072781;28;20051;-66
2022/07/03 12:30:17;;;;;;;1.40;0.90;;;23.50;99.90;;;;;;5072599;28;20045;-66
2022/07/03 12:32:45;;;;;;;2.03;1.05;;;23.80;99.90;;;;;;5059485;28;20041;-66
2022/07/03 12:35:11;;;;;;;2.13;1.25;;;24.10;99.90;;;;;;5074904;28;20071;-66
2022/07/03 12:37:44;;;;;;;4.70;1.00;;;24.20;99.90;;;;;;5066115;28;20048;-66
2022/07/03 12:40:12;;;;;;;2.67;1.08;;;24.50;99.90;;;;;;5069622;28;20055;-66
2022/07/03 12:42:49;;;;;;;3.25;1.00;;;24.50;99.90;;;;;;5069673;28;20049;-66
2022/07/03 12:45:17;;;;;;;2.90;1.00;;;24.50;99.90;;;;;;5046599;28;20041;-66
2022/07/03 12:47:44;;;;;;;1.55;0.90;;;24.70;99.90;;;;;;5049518;28;20105;-66
2022/07/03 12:50:10;;;;;;;2.70;0.82;;;24.70;99.90;;;;;;5016035;28;20523;-67
2022/07/03 12:52:50;;;;;;;2.53;1.00;;;24.80;99.90;;;;;;5055704;28;20084;-66
2022/07/03 12:55:28;;;;;;;2.28;1.10;;;24.70;99.90;;;;;;5050429;28;20060;-66
2022/07/03 13:00:58;;;;;;;2.38;1.00;;;24.50;99.90;;;;;;5069522;28;20102;-66
2022/07/03 13:03:34;;;;;;;3.65;1.17;;;24.50;99.90;;;;;;5067050;28;20037;-67
2022/07/03 13:06:00;;;;;;;3.00;1.10;;;24.30;99.90;;;;;;5046173;28;20049;-66
2022/07/03 13:08:26;;;;;;;4.75;1.30;;;24.40;99.90;;;;;;5059136;28;20171;-66
2022/07/03 13:10:59;;;;;;;2.47;1.10;;;24.50;99.90;;;;;;5036030;28;20045;-66
2022/07/03 13:13:25;;;;;;;3.17;1.40;;;24.80;99.90;;;;;;5041123;28;20505;-66
2022/07/03 13:15:51;;;;;;;3.42;1.48;;;24.60;99.90;;;;;;5055464;28;20119;-66